createdAt,value
2022-11-04T00:00:45.920Z,54.38
2022-11-04T00:03:12.904Z,54.51
2022-11-04T00:05:39.864Z,54.81
2022-11-04T00:08:24.930Z,54.63
2022-11-04T00:11:16.789Z,55.09
2022-11-04T00:13:44.043Z,54.58
2022-11-04T00:16:30.308Z,55.13
2022-11-04T00:18:57.400Z,55.64
2022-11-04T00:21:42.870Z,55.80
2022-11-04T00:24:50.222Z,55.75
2022-11-04T00:27:38.698Z,56.49
2022-11-04T00:30:09.634Z,56.28
2022-11-04T00:32:55.413Z,56.53
2022-11-04T00:35:22.908Z,56.91
2022-11-04T00:37:49.848Z,56.79
2022-11-04T00:40:17.408Z,56.55
2022-11-04T00:42:45.968Z,56.83
2022-11-04T00:45:13.016Z,57.11
2022-11-04T00:47:39.924Z,56.85
2022-11-04T00:50:07.592Z,56.73
2022-11-04T00:52:34.678Z,56.62
2022-11-04T00:55:01.747Z,56.36
2022-11-04T00:57:28.639Z,56.32
2022-11-04T00:59:55.592Z,56.30
2022-11-04T01:02:22.773Z,56.84
2022-11-04T01:04:49.765Z,56.99
2022-11-04T01:07:16.745Z,56.81
2022-11-04T01:09:43.643Z,57.35
2022-11-04T01:12:10.603Z,57.96
2022-11-04T01:14:37.703Z,56.99
2022-11-04T01:17:04.812Z,57.63
2022-11-04T01:19:31.956Z,57.14
2022-11-04T01:21:58.980Z,57.24
2022-11-04T01:24:26.177Z,57.04
2022-11-04T01:26:53.121Z,56.69
2022-11-04T01:29:20.041Z,56.76
2022-11-04T01:31:46.879Z,56.70
2022-11-04T01:34:13.867Z,56.28
2022-11-04T01:36:40.834Z,56.50
2022-11-04T01:39:07.915Z,56.22
2022-11-04T01:41:34.991Z,56.29
2022-11-04T01:44:42.707Z,56.33
2022-11-04T01:47:36.346Z,56.34
2022-11-04T01:50:13.750Z,56.50
2022-11-04T01:52:44.636Z,56.67
2022-11-04T01:55:17.780Z,56.81
2022-11-04T01:57:49.133Z,56.34
2022-11-04T02:00:16.734Z,56.55
2022-11-04T02:03:06.537Z,56.16
2022-11-04T02:05:33.834Z,56.22
2022-11-04T02:08:04.836Z,56.12
2022-11-04T02:10:32.988Z,56.25
2022-11-04T02:13:03.543Z,55.92
2022-11-04T02:15:51.133Z,55.99
2022-11-04T02:18:43.463Z,55.96
2022-11-04T02:21:34.882Z,55.69
2022-11-04T02:24:17.450Z,55.59
2022-11-04T02:27:19.505Z,55.51
2022-11-04T02:30:01.592Z,55.88
2022-11-04T02:32:44.444Z,56.05
2022-11-04T02:35:36.024Z,56.34
2022-11-04T02:38:32.700Z,56.27
2022-11-04T02:41:25.698Z,56.21
2022-11-04T02:44:03.409Z,56.20
2022-11-04T02:46:38.645Z,56.27
2022-11-04T02:49:15.497Z,56.14
2022-11-04T02:51:53.718Z,56.51
2022-11-04T02:54:48.520Z,56.68
2022-11-04T02:57:24.661Z,56.52
2022-11-04T03:00:02.127Z,56.61
2022-11-04T03:02:56.041Z,56.58
2022-11-04T03:05:29.055Z,56.85
2022-11-04T03:08:01.583Z,56.96
2022-11-04T03:10:35.808Z,56.92
2022-11-04T03:13:21.017Z,57.06
2022-11-04T03:16:11.675Z,57.20
2022-11-04T03:19:19.658Z,57.35
2022-11-04T03:21:55.709Z,57.14
2022-11-04T03:24:22.723Z,57.61
2022-11-04T03:26:54.763Z,57.28
2022-11-04T03:29:37.491Z,57.30
2022-11-04T03:32:25.380Z,57.27
2022-11-04T03:34:52.725Z,57.55
2022-11-04T03:37:19.755Z,57.45
2022-11-04T03:39:47.222Z,57.23
2022-11-04T03:42:21.357Z,57.31
2022-11-04T03:44:52.603Z,57.11
2022-11-04T03:47:23.183Z,56.97
2022-11-04T03:50:02.225Z,57.19
2022-11-04T03:52:29.217Z,56.91
2022-11-04T03:54:56.481Z,56.90
2022-11-04T03:57:48.089Z,56.56
2022-11-04T04:00:18.459Z,56.33
2022-11-04T04:03:05.575Z,56.86
2022-11-04T04:05:48.087Z,56.62
2022-11-04T04:08:15.300Z,57.06
2022-11-04T04:11:08.845Z,56.67
2022-11-04T04:13:41.973Z,56.83
2022-11-04T04:16:41.158Z,56.69
2022-11-04T04:19:16.447Z,56.65
2022-11-04T04:21:49.795Z,56.39
2022-11-04T04:24:39.744Z,56.47
2022-11-04T04:27:25.321Z,56.66
2022-11-04T04:29:53.807Z,56.44
2022-11-04T04:32:23.978Z,56.37
2022-11-04T04:34:51.023Z,56.39
2022-11-04T04:37:25.705Z,56.78
2022-11-04T04:40:18.421Z,56.66
2022-11-04T04:43:06.816Z,56.55
2022-11-04T04:45:37.601Z,56.39
2022-11-04T04:48:05.983Z,56.39
2022-11-04T04:50:37.566Z,56.26
2022-11-04T04:53:06.093Z,56.53
2022-11-04T04:55:37.543Z,56.36
2022-11-04T04:58:07.651Z,56.00
2022-11-04T05:00:34.612Z,56.13
2022-11-04T05:03:01.521Z,56.08
2022-11-04T05:05:28.515Z,56.20
2022-11-04T05:07:55.460Z,56.29
2022-11-04T05:10:22.356Z,55.98
2022-11-04T05:13:08.019Z,56.06
2022-11-04T05:15:35.141Z,56.51
2022-11-04T05:18:03.432Z,56.16
2022-11-04T05:20:32.981Z,56.20
2022-11-04T05:23:00.383Z,56.54
2022-11-04T05:25:27.248Z,56.50
2022-11-04T05:27:54.146Z,56.52
2022-11-04T05:30:21.301Z,56.61
2022-11-04T05:32:48.157Z,57.31
2022-11-04T05:35:15.159Z,57.17
2022-11-04T05:37:42.046Z,57.07
2022-11-04T05:40:09.403Z,57.25
2022-11-04T05:42:36.977Z,57.51
2022-11-04T05:45:04.873Z,57.28
2022-11-04T05:47:31.898Z,57.41
2022-11-04T05:49:58.771Z,57.46
2022-11-04T05:52:25.689Z,57.33
2022-11-04T05:54:52.754Z,57.30
2022-11-04T05:57:19.639Z,57.32
2022-11-04T05:59:46.498Z,57.46
2022-11-04T06:02:13.524Z,57.18
2022-11-04T06:04:41.126Z,57.65
2022-11-04T06:07:09.244Z,57.35
2022-11-04T06:09:39.259Z,57.51
2022-11-04T06:12:15.101Z,57.52
2022-11-04T06:14:42.991Z,57.12
2022-11-04T06:17:17.758Z,57.18
2022-11-04T06:19:44.969Z,57.94
2022-11-04T06:22:13.466Z,57.79
2022-11-04T06:24:41.085Z,57.54
2022-11-04T06:27:08.695Z,58.16
2022-11-04T06:29:41.173Z,57.74
2022-11-04T06:32:17.237Z,58.37
2022-11-04T06:34:44.691Z,57.22
2022-11-04T06:37:12.110Z,58.46
2022-11-04T06:39:39.135Z,59.41
2022-11-04T06:42:06.464Z,58.86
2022-11-04T06:44:37.190Z,58.61
2022-11-04T06:47:07.223Z,58.65
2022-11-04T06:49:34.603Z,58.63
2022-11-04T06:52:05.491Z,58.17
2022-11-04T06:54:32.580Z,58.65
2022-11-04T06:56:59.515Z,58.83
2022-11-04T06:59:26.424Z,58.04
2022-11-04T07:01:53.527Z,56.22
2022-11-04T07:04:20.613Z,52.92
2022-11-04T07:06:47.808Z,55.28
2022-11-04T07:09:15.924Z,54.50
2022-11-04T07:11:44.438Z,51.22
2022-11-04T07:14:12.507Z,48.69
2022-11-04T07:16:39.505Z,48.35
2022-11-04T07:19:06.885Z,46.24
2022-11-04T07:21:33.979Z,46.47
2022-11-04T07:24:02.069Z,46.34
2022-11-04T07:26:29.024Z,45.45
2022-11-04T07:28:56.058Z,45.17
2022-11-04T07:31:22.920Z,44.82
2022-11-04T07:33:52.609Z,43.15
2022-11-04T07:36:20.207Z,43.29
2022-11-04T07:38:47.258Z,43.45
2022-11-04T07:41:14.926Z,44.13
2022-11-04T07:43:41.762Z,42.64
2022-11-04T07:46:14.907Z,41.76
2022-11-04T07:48:41.860Z,41.89
2022-11-04T07:51:11.454Z,41.22
2022-11-04T07:53:38.401Z,40.84
2022-11-04T07:56:07.848Z,41.63
2022-11-04T07:58:35.129Z,41.04
2022-11-04T08:01:07.780Z,40.36
2022-11-04T08:03:36.917Z,40.21
2022-11-04T08:06:06.145Z,40.94
2022-11-04T08:08:35.947Z,40.49
2022-11-04T08:11:06.539Z,41.72
2022-11-04T08:13:36.474Z,39.32
2022-11-04T08:16:06.445Z,39.40
2022-11-04T08:18:34.107Z,38.94
2022-11-04T08:21:02.582Z,39.60
2022-11-04T08:23:30.283Z,38.37
2022-11-04T08:25:57.671Z,37.88
2022-11-04T08:28:25.333Z,37.93
2022-11-04T08:31:05.392Z,37.98
2022-11-04T08:33:34.090Z,38.86
2022-11-04T08:36:09.477Z,37.44
2022-11-04T08:38:37.517Z,36.96
2022-11-04T08:41:06.377Z,38.38
2022-11-04T08:43:35.750Z,38.48
2022-11-04T08:46:05.386Z,37.78
2022-11-04T08:48:33.904Z,38.39
2022-11-04T08:51:01.654Z,38.75
2022-11-04T08:53:28.865Z,37.70
2022-11-04T08:55:56.179Z,37.98
2022-11-04T08:58:24.873Z,37.16
2022-11-04T09:00:52.615Z,37.09
2022-11-04T09:03:20.196Z,36.29
2022-11-04T09:05:49.314Z,35.96
2022-11-04T09:08:18.003Z,37.02
2022-11-04T09:10:47.511Z,38.39
2022-11-04T09:13:16.112Z,36.97
2022-11-04T09:15:44.061Z,37.16
2022-11-04T09:18:11.526Z,36.07
2022-11-04T09:20:45.037Z,34.50
2022-11-04T09:23:12.183Z,35.28
2022-11-04T09:25:39.392Z,34.67
2022-11-04T09:28:06.535Z,34.46
2022-11-04T09:30:34.118Z,32.69
2022-11-04T09:33:01.057Z,33.93
2022-11-04T09:35:28.010Z,34.64
2022-11-04T09:37:55.521Z,34.19
2022-11-04T09:40:24.987Z,32.50
2022-11-04T09:43:07.289Z,33.35
2022-11-04T09:45:35.224Z,33.53
2022-11-04T09:48:08.805Z,33.37
2022-11-04T09:50:49.066Z,32.87
2022-11-04T09:53:34.940Z,33.54
2022-11-04T09:56:13.888Z,34.45
2022-11-04T09:58:40.961Z,33.14
2022-11-04T10:01:37.432Z,33.59
2022-11-04T10:04:26.399Z,33.84
2022-11-04T10:07:10.033Z,34.46
2022-11-04T10:10:01.124Z,34.15
2022-11-04T10:12:53.514Z,33.46
2022-11-04T10:15:54.915Z,34.45
2022-11-04T10:18:55.818Z,34.95
2022-11-04T10:21:49.077Z,36.63
2022-11-04T10:24:18.392Z,35.59
2022-11-04T10:27:01.317Z,34.66
2022-11-04T10:29:41.444Z,34.73
2022-11-04T10:32:22.099Z,33.52
2022-11-04T10:34:57.421Z,34.10
2022-11-04T10:37:25.690Z,35.67
2022-11-04T10:40:01.607Z,33.94
2022-11-04T10:42:28.735Z,34.11
2022-11-04T10:44:55.880Z,33.92
2022-11-04T10:47:42.800Z,35.10
2022-11-04T10:50:28.323Z,33.84
2022-11-04T10:53:11.712Z,33.35
2022-11-04T10:55:49.739Z,33.15
2022-11-04T10:58:27.745Z,34.30
2022-11-04T11:00:57.980Z,34.13
2022-11-04T11:03:43.208Z,33.79
2022-11-04T11:06:21.305Z,33.53
2022-11-04T11:08:49.065Z,33.94
2022-11-04T11:11:17.146Z,32.86
2022-11-04T11:13:46.811Z,32.72
2022-11-04T11:16:19.994Z,33.52
2022-11-04T11:19:19.891Z,34.38
2022-11-04T11:21:52.117Z,33.68
2022-11-04T11:24:31.016Z,33.47
2022-11-04T11:27:01.171Z,34.13
2022-11-04T11:29:40.536Z,34.67
2022-11-04T11:32:32.095Z,33.44
2022-11-04T11:35:04.265Z,33.47
2022-11-04T11:37:33.567Z,34.80
2022-11-04T11:40:00.568Z,34.66
2022-11-04T11:42:27.625Z,33.74
2022-11-04T11:44:57.561Z,34.06
2022-11-04T11:47:30.377Z,34.16
2022-11-04T11:50:35.944Z,32.40
2022-11-04T11:53:19.802Z,32.89
2022-11-04T11:57:06.831Z,32.46
2022-11-04T12:03:18.469Z,33.16
2022-11-04T12:09:35.444Z,32.39
2022-11-04T12:12:08.113Z,32.34
2022-11-04T12:14:43.572Z,32.89
2022-11-04T12:17:43.705Z,34.25
2022-11-04T12:20:42.047Z,33.67
2022-11-04T12:23:18.250Z,33.53
2022-11-04T12:26:01.111Z,34.34
2022-11-04T12:28:49.816Z,32.83
2022-11-04T12:31:32.817Z,33.33
2022-11-04T12:34:35.137Z,33.76
2022-11-04T12:37:10.712Z,34.25
2022-11-04T12:40:06.541Z,32.98
2022-11-04T12:42:39.059Z,33.32
2022-11-04T12:45:42.371Z,33.48
2022-11-04T12:48:38.872Z,33.67
2022-11-04T12:51:23.293Z,33.66
2022-11-04T12:54:19.700Z,32.58
2022-11-04T12:56:58.262Z,33.25
2022-11-04T12:59:43.676Z,33.38
2022-11-04T13:02:22.250Z,33.79
2022-11-04T13:05:21.460Z,34.23
2022-11-04T13:07:57.841Z,32.50
2022-11-04T13:10:42.857Z,32.87
2022-11-04T13:13:12.354Z,32.29
2022-11-04T13:15:46.474Z,32.75
2022-11-04T13:18:19.823Z,31.32
2022-11-04T13:21:05.278Z,32.21
2022-11-04T13:23:58.089Z,31.98
2022-11-04T13:26:25.843Z,32.27
2022-11-04T13:29:16.166Z,33.48
2022-11-04T13:32:03.314Z,34.37
2022-11-04T13:34:54.891Z,34.19
2022-11-04T13:37:28.386Z,34.85
2022-11-04T13:39:58.898Z,34.75
2022-11-04T13:43:25.821Z,35.19
2022-11-04T13:45:54.189Z,34.83
2022-11-04T13:48:26.583Z,35.22
2022-11-04T13:51:01.317Z,34.41
2022-11-04T13:53:58.082Z,34.10
2022-11-04T13:56:40.010Z,35.56
2022-11-04T13:59:27.620Z,35.59
2022-11-04T14:02:12.839Z,34.99
2022-11-04T14:04:40.529Z,35.60
2022-11-04T14:07:11.485Z,35.58
2022-11-04T14:09:44.366Z,36.10
2022-11-04T14:12:11.275Z,36.38
2022-11-04T14:14:40.015Z,36.82
2022-11-04T14:17:34.901Z,37.23
2022-11-04T14:20:24.211Z,37.55
2022-11-04T14:22:56.688Z,37.74
2022-11-04T14:25:41.677Z,37.70
2022-11-04T14:28:14.807Z,37.87
2022-11-04T14:30:49.605Z,38.16
2022-11-04T14:33:35.561Z,38.31
2022-11-04T14:36:25.280Z,37.96
2022-11-04T14:39:10.145Z,38.11
2022-11-04T14:41:40.188Z,38.55
2022-11-04T14:44:33.165Z,38.15
2022-11-04T14:47:18.695Z,37.92
2022-11-04T14:49:49.780Z,38.40
2022-11-04T14:52:21.803Z,38.66
2022-11-04T14:54:50.126Z,38.84
2022-11-04T14:57:22.524Z,39.17
2022-11-04T14:59:52.325Z,38.85
2022-11-04T15:02:23.477Z,38.68
2022-11-04T15:04:55.417Z,38.93
2022-11-04T15:07:34.163Z,39.26
2022-11-04T15:10:20.637Z,39.34
2022-11-04T15:12:51.019Z,39.58
2022-11-04T15:15:34.215Z,39.62
2022-11-04T15:18:09.902Z,39.76
2022-11-04T15:20:45.574Z,39.74
2022-11-04T15:23:18.322Z,40.32
2022-11-04T15:25:48.130Z,40.58
2022-11-04T15:28:24.893Z,40.77
2022-11-04T15:31:05.530Z,40.92
2022-11-04T15:33:38.908Z,41.18
2022-11-04T15:36:09.152Z,40.73
2022-11-04T15:38:46.841Z,40.78
2022-11-04T15:41:38.311Z,40.56
2022-11-04T15:44:14.813Z,40.30
2022-11-04T15:46:48.538Z,39.29
2022-11-04T15:49:24.428Z,39.64
2022-11-04T15:51:55.963Z,38.66
2022-11-04T15:54:32.052Z,38.31
2022-11-04T15:57:03.248Z,38.81
2022-11-04T15:59:35.482Z,39.28
2022-11-04T16:02:04.998Z,39.17
2022-11-04T16:04:32.490Z,39.49
2022-11-04T16:07:21.919Z,39.54
2022-11-04T16:09:53.552Z,39.78
2022-11-04T16:12:30.994Z,40.12
2022-11-04T16:14:59.091Z,40.24
2022-11-04T16:17:27.326Z,40.56
2022-11-04T16:20:01.292Z,40.73
2022-11-04T16:22:34.400Z,40.85
2022-11-04T16:25:03.695Z,40.73
2022-11-04T16:27:33.563Z,40.88
2022-11-04T16:30:33.624Z,40.75
2022-11-04T16:33:11.743Z,40.89
2022-11-04T16:35:42.844Z,41.05
2022-11-04T16:38:09.882Z,40.92
2022-11-04T16:40:36.808Z,41.15
2022-11-04T16:43:03.776Z,40.71
2022-11-04T16:45:36.412Z,40.97
2022-11-04T16:48:03.835Z,41.06
2022-11-04T16:50:34.506Z,41.17
2022-11-04T16:53:03.342Z,41.12
2022-11-04T16:55:30.885Z,40.86
2022-11-04T16:58:03.165Z,40.71
2022-11-04T17:00:33.177Z,40.78
2022-11-04T17:03:12.699Z,40.81
2022-11-04T17:05:39.676Z,40.99
2022-11-04T17:08:06.616Z,40.63
2022-11-04T17:10:36.446Z,40.65
2022-11-04T17:13:03.551Z,40.78
2022-11-04T17:15:30.448Z,40.68
2022-11-04T17:17:57.344Z,41.15
2022-11-04T17:20:24.380Z,41.38
2022-11-04T17:22:53.027Z,41.84
2022-11-04T17:25:25.199Z,41.69
2022-11-04T17:27:52.178Z,42.16
2022-11-04T17:30:20.474Z,42.13
2022-11-04T17:32:48.307Z,42.02
2022-11-04T17:35:16.792Z,42.26
2022-11-04T17:37:44.315Z,42.25
2022-11-04T17:40:16.566Z,42.51
2022-11-04T17:43:05.625Z,43.03
2022-11-04T17:45:37.215Z,42.81
2022-11-04T17:48:05.500Z,43.15
2022-11-04T17:50:33.288Z,42.95
2022-11-04T17:53:00.262Z,42.87
2022-11-04T17:55:27.807Z,43.61
2022-11-04T17:57:55.548Z,43.33
2022-11-04T18:00:26.046Z,43.18
2022-11-04T18:02:53.074Z,43.26
2022-11-04T18:05:20.503Z,43.71
2022-11-04T18:07:47.398Z,43.98
2022-11-04T18:10:14.546Z,44.06
2022-11-04T18:12:41.749Z,43.94
2022-11-04T18:15:11.935Z,44.03
2022-11-04T18:17:40.182Z,44.33
2022-11-04T18:20:13.611Z,44.11
2022-11-04T18:22:41.730Z,44.51
2022-11-04T18:25:09.792Z,45.17
2022-11-04T18:27:36.991Z,44.86
2022-11-04T18:30:04.445Z,45.07
2022-11-04T18:32:31.297Z,45.13
2022-11-04T18:34:58.280Z,45.66
2022-11-04T18:37:25.280Z,45.54
2022-11-04T18:39:52.232Z,46.24
2022-11-04T18:42:19.181Z,46.39
2022-11-04T18:44:46.563Z,46.35
2022-11-04T18:47:14.296Z,46.85
2022-11-04T18:49:41.315Z,46.47
2022-11-04T18:52:08.525Z,46.38
2022-11-04T18:54:36.347Z,46.40
2022-11-04T18:57:04.696Z,46.37
2022-11-04T18:59:31.780Z,46.60
2022-11-04T19:01:58.915Z,46.16
2022-11-04T19:04:25.962Z,46.39
2022-11-04T19:06:52.890Z,46.18
2022-11-04T19:12:26.274Z,46.44
2022-11-04T19:14:53.473Z,46.80
2022-11-04T19:17:21.047Z,46.98
2022-11-04T19:19:48.106Z,46.94
2022-11-04T19:22:15.036Z,47.02
2022-11-04T19:24:41.925Z,47.18
2022-11-04T19:27:08.928Z,47.25
2022-11-04T19:29:35.983Z,46.89
2022-11-04T19:32:03.138Z,47.47
2022-11-04T19:34:30.108Z,47.45
2022-11-04T19:36:57.005Z,47.65
2022-11-04T19:39:24.012Z,47.59
2022-11-04T19:42:09.330Z,47.31
2022-11-04T19:44:36.173Z,47.45
2022-11-04T19:47:03.134Z,46.70
2022-11-04T19:49:31.702Z,47.92
2022-11-04T19:51:59.559Z,47.98
2022-11-04T19:54:27.298Z,47.91
2022-11-04T19:56:54.519Z,47.84
2022-11-04T19:59:21.549Z,48.85
2022-11-04T20:01:48.518Z,48.21
2022-11-04T20:04:15.532Z,48.52
2022-11-04T20:06:42.516Z,47.91
2022-11-04T20:09:13.142Z,48.53
2022-11-04T20:11:59.701Z,49.56
2022-11-04T20:14:28.200Z,48.98
2022-11-04T20:16:55.526Z,48.99
2022-11-04T20:19:23.328Z,48.73
2022-11-04T20:21:51.023Z,49.74
2022-11-04T20:24:18.644Z,49.76
2022-11-04T20:26:47.058Z,49.46
2022-11-04T20:29:16.311Z,49.42
2022-11-04T20:31:44.790Z,49.67
2022-11-04T20:34:13.557Z,49.66
2022-11-04T20:36:41.781Z,49.34
2022-11-04T20:39:14.563Z,49.66
2022-11-04T20:41:42.594Z,49.52
2022-11-04T20:44:14.394Z,49.20
2022-11-04T20:46:41.698Z,50.29
2022-11-04T20:49:08.919Z,49.68
2022-11-04T20:51:38.672Z,49.80
2022-11-04T20:54:06.933Z,48.97
2022-11-04T20:56:37.232Z,48.88
2022-11-04T20:59:06.167Z,48.97
2022-11-04T21:01:36.196Z,49.06
2022-11-04T21:04:09.232Z,48.49
2022-11-04T21:06:40.649Z,49.22
2022-11-04T21:09:11.488Z,48.99
2022-11-04T21:11:39.818Z,48.75
2022-11-04T21:14:08.560Z,48.45
2022-11-04T21:16:35.870Z,48.12
2022-11-04T21:19:04.252Z,47.17
2022-11-04T21:21:32.624Z,47.65
2022-11-04T21:24:01.411Z,47.17
2022-11-04T21:26:30.327Z,47.84
2022-11-04T21:28:58.907Z,47.10
2022-11-04T21:31:26.151Z,47.40
2022-11-04T21:33:53.526Z,46.35
2022-11-04T21:36:22.593Z,47.64
2022-11-04T21:38:52.832Z,47.72
2022-11-04T21:41:23.279Z,47.62
2022-11-04T21:44:05.357Z,47.68
2022-11-04T21:46:34.835Z,48.11
2022-11-04T21:49:02.090Z,47.89
2022-11-04T21:51:31.854Z,47.65
2022-11-04T21:54:00.146Z,47.34
2022-11-04T21:56:29.446Z,47.22
2022-11-04T21:58:56.898Z,47.69
2022-11-04T22:07:49.857Z,47.14
2022-11-04T22:10:17.106Z,47.90
2022-11-04T22:12:48.539Z,47.65
2022-11-04T22:15:38.907Z,47.73
2022-11-04T22:18:06.937Z,47.54
2022-11-04T22:20:36.405Z,47.40
2022-11-04T22:23:03.321Z,47.68
2022-11-04T22:25:30.849Z,47.79
2022-11-04T22:27:58.123Z,47.94
2022-11-04T22:30:25.876Z,47.63
2022-11-04T22:32:53.159Z,47.68
2022-11-04T22:35:20.250Z,47.46
2022-11-04T22:37:47.153Z,47.41
2022-11-04T22:40:14.118Z,47.22
2022-11-04T22:42:41.057Z,47.05
2022-11-04T22:45:12.465Z,47.18
2022-11-04T22:47:42.414Z,47.25
2022-11-04T22:50:09.633Z,46.98
2022-11-04T22:52:36.573Z,46.72
2022-11-04T22:55:03.618Z,46.25
2022-11-04T22:57:30.596Z,46.26
2022-11-04T22:59:57.609Z,45.79
2022-11-04T23:02:24.594Z,45.46
2022-11-04T23:04:51.538Z,46.19
2022-11-04T23:07:18.638Z,46.31
2022-11-04T23:10:04.102Z,46.21
2022-11-04T23:12:49.916Z,46.30
2022-11-04T23:15:35.665Z,46.08
2022-11-04T23:18:21.352Z,46.36
2022-11-04T23:21:08.192Z,45.58
2022-11-04T23:23:53.685Z,45.04
2022-11-04T23:26:26.437Z,44.38
2022-11-04T23:29:13.142Z,44.75
2022-11-04T23:31:40.062Z,45.16
2022-11-04T23:34:25.734Z,43.89
2022-11-04T23:37:11.373Z,44.24
2022-11-04T23:39:46.442Z,43.98
2022-11-04T23:42:16.429Z,43.37
2022-11-04T23:45:09.706Z,44.08
2022-11-04T23:47:57.841Z,44.19
2022-11-04T23:50:45.477Z,44.54
2022-11-04T23:53:32.735Z,42.76
2022-11-04T23:56:18.797Z,42.58
2022-11-04T23:59:05.050Z,43.62
